createdAt,value
2018-05-11T00:00:15.821Z,40.2
2018-05-11T00:01:17.472Z,45.4
2018-05-11T00:02:19.126Z,42.6
2018-05-11T00:03:20.776Z,46.7
2018-05-11T00:04:22.429Z,44.3
2018-05-11T00:05:24.072Z,44.1
2018-05-11T00:06:25.715Z,50.4
2018-05-11T00:07:27.364Z,46.6
2018-05-11T00:08:29.016Z,43.6
2018-05-11T00:09:30.673Z,47.3
2018-05-11T00:10:32.313Z,49.5
2018-05-11T00:11:33.963Z,47.3
2018-05-11T00:12:35.610Z,47.0
2018-05-11T00:13:37.264Z,44.8
2018-05-11T00:14:38.920Z,45.3
2018-05-11T00:15:40.569Z,51.2
2018-05-11T00:16:42.231Z,44.7
2018-05-11T00:17:43.869Z,47.0
2018-05-11T00:18:45.523Z,47.2
2018-05-11T00:19:47.167Z,51.0
2018-05-11T00:20:48.816Z,46.0
2018-05-11T00:21:50.467Z,42.1
2018-05-11T00:22:52.118Z,45.5
2018-05-11T00:23:53.769Z,47.6
2018-05-11T00:24:55.421Z,46.8
2018-05-11T00:25:57.073Z,47.0
2018-05-11T00:26:58.728Z,43.9
2018-05-11T00:28:00.375Z,47.1
2018-05-11T00:29:02.016Z,50.8
2018-05-11T00:30:03.663Z,44.9
2018-05-11T00:31:05.314Z,46.7
2018-05-11T00:32:06.957Z,51.7
2018-05-11T00:33:08.605Z,51.4
2018-05-11T00:34:10.254Z,44.5
2018-05-11T00:35:11.890Z,49.6
2018-05-11T00:36:13.553Z,44.7
2018-05-11T00:37:15.205Z,41.5
2018-05-11T00:38:16.985Z,51.3
2018-05-11T00:39:18.636Z,46.9
2018-05-11T00:40:20.285Z,48.9
2018-05-11T00:41:21.927Z,48.6
2018-05-11T00:42:23.572Z,45.0
2018-05-11T00:43:25.228Z,44.6
2018-05-11T00:44:26.878Z,48.5
2018-05-11T00:45:28.528Z,47.3
2018-05-11T00:46:30.176Z,47.4
2018-05-11T00:47:31.826Z,47.6
2018-05-11T00:48:33.472Z,46.8
2018-05-11T00:49:35.120Z,48.7
2018-05-11T00:50:36.774Z,48.7
2018-05-11T00:51:38.427Z,45.5
2018-05-11T00:52:40.077Z,45.1
2018-05-11T00:53:41.735Z,43.1
2018-05-11T00:54:43.388Z,44.8
2018-05-11T00:55:45.033Z,46.6
2018-05-11T00:56:46.676Z,47.5
2018-05-11T00:57:48.360Z,45.8
2018-05-11T00:58:50.009Z,47.1
2018-05-11T00:59:51.660Z,43.7
2018-05-11T01:00:53.301Z,40.9
2018-05-11T01:01:54.955Z,45.9
2018-05-11T01:02:56.605Z,43.8
2018-05-11T01:03:58.258Z,48.0
2018-05-11T01:04:59.907Z,45.5
2018-05-11T01:06:01.561Z,46.6
2018-05-11T01:07:03.205Z,52.1
2018-05-11T01:08:04.867Z,46.9
2018-05-11T01:09:06.514Z,49.8
2018-05-11T01:10:08.160Z,52.3
2018-05-11T01:11:09.815Z,45.6
2018-05-11T01:12:11.467Z,45.3
2018-05-11T01:13:13.111Z,43.7
2018-05-11T01:14:14.767Z,48.4
2018-05-11T01:15:16.413Z,46.7
2018-05-11T01:16:18.103Z,49.0
2018-05-11T01:17:19.711Z,54.4
2018-05-11T01:18:21.351Z,47.9
2018-05-11T01:19:22.995Z,51.6
2018-05-11T01:20:24.650Z,48.1
2018-05-11T01:21:26.300Z,41.2
2018-05-11T01:22:27.949Z,44.6
2018-05-11T01:23:29.598Z,49.6
2018-05-11T01:24:31.242Z,46.5
2018-05-11T01:25:32.892Z,48.1
2018-05-11T01:26:34.538Z,45.1
2018-05-11T01:27:36.195Z,44.8
2018-05-11T01:28:37.852Z,45.7
2018-05-11T01:29:39.496Z,44.7
2018-05-11T01:30:41.142Z,47.6
2018-05-11T01:31:42.788Z,47.8
2018-05-11T01:32:44.439Z,48.7
2018-05-11T01:33:46.093Z,43.6
2018-05-11T01:34:47.761Z,42.8
2018-05-11T01:35:49.415Z,43.2
2018-05-11T01:36:51.080Z,44.0
2018-05-11T01:37:52.718Z,44.1
2018-05-11T01:38:54.369Z,39.6
2018-05-11T01:39:56.016Z,43.5
2018-05-11T01:40:57.663Z,42.4
2018-05-11T01:41:59.321Z,42.8
2018-05-11T01:43:00.972Z,40.9
2018-05-11T01:44:02.614Z,39.9
2018-05-11T01:45:04.265Z,39.9
2018-05-11T01:46:05.908Z,41.3
2018-05-11T01:47:07.560Z,46.3
2018-05-11T01:48:09.209Z,43.2
2018-05-11T01:49:10.870Z,40.0
2018-05-11T01:50:12.522Z,43.3
2018-05-11T01:51:14.167Z,39.3
2018-05-11T01:52:15.814Z,39.0
2018-05-11T01:53:17.473Z,46.1
2018-05-11T01:54:19.121Z,40.0
2018-05-11T01:55:20.766Z,37.8
2018-05-11T02:02:00.674Z,34.3
2018-05-11T02:03:02.335Z,39.6
2018-05-11T02:04:54.235Z,45.2
2018-05-11T02:05:55.877Z,41.8
2018-05-11T02:07:47.874Z,47.9
2018-05-11T02:08:49.518Z,54.9
2018-05-11T02:10:41.399Z,39.8
2018-05-11T02:11:43.044Z,39.6
2018-05-11T02:13:34.948Z,41.0
2018-05-11T02:14:36.592Z,40.8
2018-05-11T02:16:28.537Z,42.5
2018-05-11T02:17:30.188Z,43.8
2018-05-11T02:19:22.094Z,37.2
2018-05-11T02:20:23.734Z,44.7
2018-05-11T02:22:15.678Z,49.2
2018-05-11T02:23:17.325Z,43.8
2018-05-11T02:25:09.233Z,37.4
2018-05-11T02:26:10.893Z,38.0
2018-05-11T02:28:02.823Z,38.9
2018-05-11T02:29:04.467Z,39.7
2018-05-11T02:30:56.390Z,40.7
2018-05-11T02:31:58.033Z,38.4
2018-05-11T02:33:49.965Z,31.5
2018-05-11T02:34:51.602Z,33.0
2018-05-11T02:35:53.255Z,41.7
2018-05-11T02:36:54.900Z,43.9
2018-05-11T02:37:56.549Z,36.0
2018-05-11T02:38:58.193Z,38.4
2018-05-11T02:39:59.839Z,43.3
2018-05-11T02:41:01.490Z,38.9
2018-05-11T02:42:03.134Z,41.3
2018-05-11T02:43:04.785Z,37.3
2018-05-11T02:44:06.427Z,39.8
2018-05-11T02:45:08.065Z,38.7
2018-05-11T02:46:09.709Z,36.0
2018-05-11T02:47:11.366Z,39.0
2018-05-11T02:48:13.020Z,40.1
2018-05-11T02:49:14.663Z,39.7
2018-05-11T02:50:16.311Z,36.2
2018-05-11T02:51:17.961Z,37.1
2018-05-11T02:52:19.610Z,41.4
2018-05-11T02:53:21.251Z,40.7
2018-05-11T02:54:22.900Z,37.1
2018-05-11T02:55:24.558Z,39.1
2018-05-11T02:56:26.205Z,36.7
2018-05-11T02:57:27.853Z,37.1
2018-05-11T02:58:29.500Z,36.2
2018-05-11T02:59:31.148Z,37.2
2018-05-11T03:00:32.811Z,32.0
2018-05-11T03:01:34.466Z,31.2
2018-05-11T03:02:36.117Z,33.9
2018-05-11T03:03:37.760Z,37.9
2018-05-11T03:04:39.412Z,37.7
2018-05-11T03:05:41.059Z,41.6
2018-05-11T03:06:42.706Z,35.5
2018-05-11T03:07:44.357Z,35.5
2018-05-11T03:08:46.008Z,35.7
2018-05-11T03:09:47.670Z,33.8
2018-05-11T03:10:49.324Z,34.3
2018-05-11T03:11:50.976Z,33.8
2018-05-11T03:12:52.614Z,34.5
2018-05-11T03:13:54.270Z,44.2
2018-05-11T03:14:55.918Z,36.3
2018-05-11T03:15:57.574Z,36.7
2018-05-11T03:16:59.226Z,37.4
2018-05-11T03:18:00.873Z,37.1
2018-05-11T03:19:02.515Z,33.1
2018-05-11T03:20:04.347Z,38.7
2018-05-11T03:21:05.994Z,40.1
2018-05-11T03:22:07.656Z,33.0
2018-05-11T03:23:09.313Z,34.5
2018-05-11T03:24:10.965Z,30.1
2018-05-11T03:25:12.611Z,39.6
2018-05-11T03:26:14.260Z,34.8
2018-05-11T03:27:15.908Z,32.5
2018-05-11T03:28:17.559Z,39.7
2018-05-11T03:29:19.239Z,40.2
2018-05-11T03:30:20.894Z,35.5
2018-05-11T03:31:22.545Z,32.6
2018-05-11T03:32:24.192Z,30.5
2018-05-11T03:33:25.850Z,35.2
2018-05-11T03:34:27.508Z,37.5
2018-05-11T03:35:29.153Z,33.2
2018-05-11T03:36:30.810Z,33.5
2018-05-11T03:37:32.465Z,36.1
2018-05-11T03:38:34.109Z,36.5
2018-05-11T03:39:35.756Z,31.9
2018-05-11T03:40:37.406Z,34.0
2018-05-11T03:41:39.061Z,35.3
2018-05-11T03:42:40.720Z,35.8
2018-05-11T03:43:42.370Z,33.6
2018-05-11T03:44:44.021Z,33.3
2018-05-11T03:45:45.682Z,35.6
2018-05-11T03:46:47.348Z,32.5
2018-05-11T03:47:48.992Z,28.0
2018-05-11T03:48:50.645Z,31.9
2018-05-11T03:49:52.287Z,31.7
2018-05-11T03:50:53.940Z,31.6
2018-05-11T03:51:55.600Z,32.2
2018-05-11T03:52:57.251Z,30.0
2018-05-11T03:53:58.896Z,31.6
2018-05-11T03:55:00.549Z,28.4
2018-05-11T03:56:02.200Z,32.7
2018-05-11T03:57:03.846Z,30.3
2018-05-11T03:58:05.502Z,28.8
2018-05-11T03:59:07.160Z,32.2
2018-05-11T04:00:08.812Z,30.6
2018-05-11T04:01:10.458Z,32.6
2018-05-11T04:02:12.113Z,32.4
2018-05-11T04:03:13.886Z,30.4
2018-05-11T04:04:15.539Z,30.7
2018-05-11T04:05:17.189Z,32.4
2018-05-11T04:06:18.849Z,28.2
2018-05-11T04:07:20.502Z,28.7
2018-05-11T04:08:22.149Z,29.4
2018-05-11T04:09:23.801Z,27.5
2018-05-11T04:10:25.453Z,29.1
2018-05-11T04:11:27.095Z,28.9
2018-05-11T04:12:28.749Z,31.2
2018-05-11T04:13:30.405Z,29.9
2018-05-11T04:14:32.067Z,27.6
2018-05-11T04:15:33.719Z,25.8
2018-05-11T04:16:35.372Z,32.5
2018-05-11T04:17:37.025Z,25.8
2018-05-11T04:18:38.682Z,28.4
2018-05-11T04:19:40.328Z,30.3
2018-05-11T04:20:42.042Z,28.7
2018-05-11T04:21:43.628Z,30.3
2018-05-11T04:22:45.280Z,25.0
2018-05-11T04:23:46.930Z,26.1
2018-05-11T04:24:48.588Z,29.4
2018-05-11T04:25:50.245Z,33.0
2018-05-11T04:26:51.890Z,24.1
2018-05-11T04:27:53.536Z,27.9
2018-05-11T04:28:55.196Z,28.9
2018-05-11T04:29:56.845Z,31.4
2018-05-11T04:30:58.499Z,28.2
2018-05-11T04:32:00.150Z,25.6
2018-05-11T04:33:01.807Z,26.8
2018-05-11T04:34:03.460Z,26.7
2018-05-11T04:35:05.122Z,30.0
2018-05-11T04:36:06.781Z,27.7
2018-05-11T04:37:08.446Z,28.5
2018-05-11T04:38:10.105Z,25.2
2018-05-11T04:39:11.740Z,26.0
2018-05-11T04:40:13.397Z,27.6
2018-05-11T04:41:15.052Z,24.1
2018-05-11T04:42:16.703Z,26.5
2018-05-11T04:43:18.362Z,22.4
2018-05-11T04:44:20.015Z,25.3
2018-05-11T04:45:21.714Z,28.9
2018-05-11T04:46:23.331Z,26.0
2018-05-11T04:47:24.999Z,26.9
2018-05-11T04:48:26.705Z,28.8
2018-05-11T04:49:28.363Z,27.9
2018-05-11T04:50:30.020Z,25.9
2018-05-11T04:51:31.668Z,28.4
2018-05-11T04:52:33.323Z,31.2
2018-05-11T04:53:34.980Z,27.1
2018-05-11T04:54:36.652Z,25.9
2018-05-11T04:55:38.307Z,24.8
2018-05-11T04:56:39.971Z,22.3
2018-05-11T04:57:41.625Z,19.4
2018-05-11T04:58:43.285Z,22.8
2018-05-11T04:59:44.922Z,18.7
2018-05-11T05:00:46.576Z,20.1
2018-05-11T05:01:48.249Z,22.5
2018-05-11T05:02:49.901Z,18.5
2018-05-11T05:03:51.556Z,23.0
2018-05-11T05:04:53.214Z,21.7
2018-05-11T05:05:54.878Z,23.9
2018-05-11T05:06:56.528Z,24.9
2018-05-11T05:07:58.185Z,24.4
2018-05-11T05:08:59.856Z,25.7
2018-05-11T05:10:01.511Z,22.9
2018-05-11T05:11:03.166Z,21.1
2018-05-11T05:12:04.857Z,19.3
2018-05-11T05:13:06.512Z,17.1
2018-05-11T05:14:08.161Z,15.7
2018-05-11T05:15:09.895Z,15.0
2018-05-11T05:16:11.486Z,18.5
2018-05-11T05:17:13.156Z,17.5
2018-05-11T05:18:14.819Z,14.9
2018-05-11T05:19:16.518Z,17.0
2018-05-11T05:20:18.151Z,15.5
2018-05-11T05:21:19.809Z,14.4
2018-05-11T05:22:21.471Z,15.2
2018-05-11T05:23:23.137Z,14.1
2018-05-11T05:24:24.799Z,16.3
2018-05-11T05:25:26.460Z,13.6
2018-05-11T05:26:28.126Z,18.2
2018-05-11T05:27:29.775Z,14.3
2018-05-11T05:28:31.432Z,17.9
2018-05-11T05:29:33.099Z,18.9
2018-05-11T05:30:34.755Z,15.5
2018-05-11T05:31:36.429Z,15.5
2018-05-11T05:32:38.121Z,19.3
2018-05-11T05:33:39.738Z,20.9
2018-05-11T05:34:41.400Z,20.0
2018-05-11T05:35:43.093Z,18.3
2018-05-11T05:36:44.760Z,18.8
2018-05-11T05:37:46.432Z,17.5
2018-05-11T05:38:48.135Z,16.6
2018-05-11T05:39:49.828Z,23.2
2018-05-11T05:40:51.492Z,14.9
2018-05-11T05:41:53.188Z,17.0
2018-05-11T05:42:54.895Z,17.9
2018-05-11T05:43:56.721Z,15.3
2018-05-11T05:44:58.373Z,14.2
2018-05-11T05:46:00.035Z,15.6
2018-05-11T05:47:01.698Z,14.6
2018-05-11T05:48:03.603Z,17.1
2018-05-11T05:49:05.265Z,13.0
2018-05-11T05:50:06.914Z,13.7
2018-05-11T05:51:08.602Z,13.4
2018-05-11T05:52:10.334Z,13.5
2018-05-11T05:53:11.894Z,13.6
2018-05-11T05:54:13.556Z,14.8
2018-05-11T05:55:15.278Z,14.1
2018-05-11T06:01:45.508Z,10.1
2018-05-11T06:02:47.206Z,12.1
2018-05-11T06:04:39.127Z,16.4
2018-05-11T06:05:40.645Z,14.6
2018-05-11T06:07:32.520Z,13.2
2018-05-11T06:08:34.180Z,12.6
2018-05-11T06:10:26.069Z,13.3
2018-05-11T06:11:27.830Z,13.1
2018-05-11T06:13:19.767Z,15.6
2018-05-11T06:14:21.426Z,12.1
2018-05-11T06:15:23.093Z,13.2
2018-05-11T06:16:24.759Z,12.7
2018-05-11T06:17:26.443Z,13.5
2018-05-11T06:18:28.114Z,13.1
2018-05-11T06:19:29.773Z,15.1
2018-05-11T06:20:31.441Z,13.1
2018-05-11T06:21:33.117Z,12.5
2018-05-11T06:22:34.772Z,11.3
2018-05-11T06:23:36.433Z,13.4
2018-05-11T06:24:38.095Z,11.4
2018-05-11T06:25:39.763Z,14.3
2018-05-11T06:26:41.428Z,15.3
2018-05-11T06:27:43.116Z,11.1
2018-05-11T06:28:44.778Z,12.7
2018-05-11T06:29:46.444Z,16.7
2018-05-11T06:30:48.134Z,11.3
2018-05-11T06:31:49.801Z,13.4
2018-05-11T06:32:51.520Z,13.2
2018-05-11T06:33:53.198Z,12.0
2018-05-11T06:34:54.862Z,12.6
2018-05-11T06:35:56.545Z,13.0
2018-05-11T06:36:58.214Z,11.5
2018-05-11T06:37:59.886Z,11.2
2018-05-11T06:39:01.595Z,10.0
2018-05-11T06:40:03.270Z,9.8
2018-05-11T06:41:04.973Z,9.8
2018-05-11T06:42:06.647Z,11.9
2018-05-11T06:43:08.553Z,10.6
2018-05-11T06:44:10.221Z,11.6
2018-05-11T06:45:11.889Z,11.4
2018-05-11T06:46:13.566Z,11.1
2018-05-11T06:47:15.282Z,11.4
2018-05-11T06:48:16.929Z,10.7
2018-05-11T06:49:18.623Z,11.2
2018-05-11T06:50:20.278Z,11.9
2018-05-11T06:51:21.962Z,13.0
2018-05-11T06:52:23.626Z,11.6
2018-05-11T06:53:25.287Z,12.7
2018-05-11T06:54:26.955Z,13.0
2018-05-11T06:55:28.625Z,11.4
2018-05-11T06:56:30.292Z,12.9
2018-05-11T06:57:31.967Z,10.8
2018-05-11T06:58:33.632Z,9.8
2018-05-11T06:59:35.301Z,10.4
2018-05-11T07:00:36.976Z,10.5
2018-05-11T07:01:38.658Z,10.5
2018-05-11T07:02:40.331Z,11.6
2018-05-11T07:03:42.016Z,11.6
2018-05-11T07:04:43.684Z,12.0
2018-05-11T07:05:45.383Z,13.1
2018-05-11T07:06:47.058Z,11.3
2018-05-11T07:07:48.837Z,10.8
2018-05-11T07:08:50.480Z,11.8
2018-05-11T07:09:52.144Z,8.5
2018-05-11T07:10:53.815Z,8.7
2018-05-11T07:11:55.487Z,10.3
2018-05-11T07:12:57.151Z,9.2
2018-05-11T07:13:58.826Z,13.1
2018-05-11T07:15:00.501Z,11.8
2018-05-11T07:16:02.169Z,10.4
2018-05-11T07:17:03.842Z,14.2
2018-05-11T07:18:05.519Z,9.6
2018-05-11T07:19:07.199Z,11.9
2018-05-11T07:20:08.865Z,11.2
2018-05-11T07:21:10.542Z,10.4
2018-05-11T07:22:12.209Z,13.9
2018-05-11T07:23:13.879Z,11.4
2018-05-11T07:24:15.554Z,7.3
2018-05-11T07:25:17.222Z,10.7
2018-05-11T07:26:18.888Z,9.6
2018-05-11T07:27:20.562Z,9.6
2018-05-11T07:28:22.236Z,13.3
2018-05-11T07:29:23.912Z,11.4
2018-05-11T07:30:25.588Z,9.5
2018-05-11T07:31:27.262Z,11.0
2018-05-11T07:32:28.931Z,9.0
2018-05-11T07:33:30.602Z,10.0
2018-05-11T07:34:32.272Z,9.6
2018-05-11T07:35:33.978Z,9.6
2018-05-11T07:36:35.640Z,9.6
2018-05-11T07:37:37.322Z,11.0
2018-05-11T07:38:39.054Z,9.8
2018-05-11T07:39:40.728Z,7.5
2018-05-11T07:40:42.401Z,11.1
2018-05-11T07:41:44.075Z,11.8
2018-05-11T07:42:45.749Z,10.9
2018-05-11T07:43:47.457Z,12.2
2018-05-11T07:44:49.123Z,12.2
2018-05-11T07:45:50.795Z,9.4
2018-05-11T07:46:52.471Z,8.6
2018-05-11T07:47:54.167Z,9.6
2018-05-11T07:48:55.837Z,12.5
2018-05-11T07:49:57.503Z,8.0
2018-05-11T07:50:59.181Z,9.7
2018-05-11T07:52:00.849Z,7.0
2018-05-11T07:53:02.524Z,10.0
2018-05-11T07:54:04.226Z,9.4
2018-05-11T07:55:05.883Z,7.4
2018-05-11T07:56:07.552Z,8.7
2018-05-11T07:57:09.225Z,11.0
2018-05-11T07:58:10.903Z,9.4
2018-05-11T07:59:12.572Z,6.9
2018-05-11T08:00:14.244Z,9.7
2018-05-11T08:01:15.914Z,11.3
2018-05-11T08:02:17.589Z,8.8
2018-05-11T08:03:19.353Z,8.9
2018-05-11T08:04:21.078Z,8.4
2018-05-11T08:05:22.783Z,10.5
2018-05-11T08:06:24.469Z,10.2
2018-05-11T08:07:26.182Z,9.6
2018-05-11T08:08:27.864Z,9.1
2018-05-11T08:09:29.534Z,11.4
2018-05-11T08:10:31.214Z,11.9
2018-05-11T08:11:32.888Z,11.7
2018-05-11T08:12:34.574Z,12.5
2018-05-11T08:13:36.258Z,9.7
2018-05-11T08:14:37.935Z,10.5
2018-05-11T08:15:39.627Z,9.3
2018-05-11T08:16:41.330Z,12.8
2018-05-11T08:17:43.096Z,13.2
2018-05-11T08:18:44.828Z,8.9
2018-05-11T08:19:46.482Z,9.6
2018-05-11T08:20:48.236Z,11.0
2018-05-11T08:21:49.910Z,11.6
2018-05-11T08:22:51.584Z,13.0
2018-05-11T08:23:53.258Z,10.3
2018-05-11T08:24:55.498Z,12.0
2018-05-11T08:25:57.184Z,12.4
2018-05-11T08:26:58.931Z,9.4
2018-05-11T08:28:00.530Z,10.7
2018-05-11T08:29:02.228Z,10.4
2018-05-11T08:30:03.951Z,11.1
2018-05-11T08:31:05.673Z,12.9
2018-05-11T08:32:07.365Z,15.3
2018-05-11T08:33:09.056Z,11.7
2018-05-11T08:34:10.726Z,11.1
2018-05-11T08:35:12.439Z,11.2
2018-05-11T08:36:14.130Z,12.4
2018-05-11T08:37:15.841Z,11.9
2018-05-11T08:38:17.553Z,9.2
2018-05-11T08:39:19.208Z,9.4
2018-05-11T08:40:20.881Z,11.6
2018-05-11T08:41:22.546Z,10.0
2018-05-11T08:42:24.237Z,10.5
2018-05-11T08:43:25.904Z,12.2
2018-05-11T08:44:27.580Z,10.6
2018-05-11T08:45:29.263Z,13.1
2018-05-11T08:46:30.958Z,12.9
2018-05-11T08:47:32.625Z,11.3
2018-05-11T08:48:34.313Z,14.3
2018-05-11T08:49:35.988Z,12.4
2018-05-11T08:50:38.291Z,8.9
2018-05-11T08:51:39.988Z,10.5
2018-05-11T08:52:41.659Z,11.0
2018-05-11T08:53:43.332Z,10.8
2018-05-11T08:54:46.297Z,9.4
2018-05-11T08:55:47.989Z,8.8
2018-05-11T08:56:49.578Z,11.7
2018-05-11T08:57:51.266Z,9.6
2018-05-11T08:58:52.951Z,11.3
2018-05-11T08:59:54.625Z,10.9
2018-05-11T09:00:56.294Z,8.0
2018-05-11T09:01:57.975Z,13.4
2018-05-11T09:02:59.715Z,11.4
2018-05-11T09:04:01.285Z,12.6
2018-05-11T09:05:02.970Z,11.2
2018-05-11T09:06:04.649Z,12.9
2018-05-11T09:07:06.333Z,11.2
2018-05-11T09:08:08.006Z,10.3
2018-05-11T09:09:09.687Z,9.7
2018-05-11T09:10:11.363Z,11.2
2018-05-11T09:11:13.044Z,7.8
2018-05-11T09:12:14.727Z,9.5
2018-05-11T09:13:16.415Z,10.5
2018-05-11T09:14:18.093Z,9.2
2018-05-11T09:15:19.775Z,11.0
2018-05-11T09:16:21.449Z,9.3
2018-05-11T09:17:23.158Z,9.3
2018-05-11T09:18:24.833Z,9.9
2018-05-11T09:19:26.506Z,9.9
2018-05-11T09:20:28.186Z,8.6
2018-05-11T09:21:29.974Z,8.8
2018-05-11T09:22:31.580Z,13.0
2018-05-11T09:23:33.256Z,12.2
2018-05-11T09:24:34.953Z,9.4
2018-05-11T09:25:36.631Z,10.4
2018-05-11T09:26:38.317Z,10.4
2018-05-11T09:27:39.981Z,7.4
2018-05-11T09:28:41.658Z,9.3
2018-05-11T09:29:43.413Z,8.0
2018-05-11T09:30:45.200Z,7.8
2018-05-11T09:31:46.903Z,9.5
2018-05-11T09:32:48.548Z,9.0
2018-05-11T09:33:50.224Z,9.1
2018-05-11T09:34:51.904Z,6.0
2018-05-11T09:35:53.595Z,10.7
2018-05-11T09:36:55.263Z,7.2
2018-05-11T09:37:56.936Z,7.0
2018-05-11T09:38:58.607Z,7.5
2018-05-11T09:40:00.286Z,6.9
2018-05-11T09:41:01.955Z,7.2
2018-05-11T09:42:03.644Z,9.7
2018-05-11T09:43:05.312Z,6.8
2018-05-11T09:44:06.988Z,8.1
2018-05-11T09:45:08.673Z,7.9
2018-05-11T09:46:10.400Z,7.0
2018-05-11T09:47:12.082Z,8.4
2018-05-11T09:48:13.765Z,7.4
2018-05-11T09:49:15.447Z,6.9
2018-05-11T09:50:17.144Z,5.6
2018-05-11T09:51:18.844Z,4.8
2018-05-11T09:52:20.535Z,6.7
2018-05-11T09:53:22.211Z,6.3
2018-05-11T09:54:23.886Z,4.6
2018-05-11T09:55:25.566Z,5.4
2018-05-11T10:01:26.394Z,4.0
2018-05-11T10:02:28.096Z,5.2
2018-05-11T10:04:20.005Z,7.1
2018-05-11T10:05:21.673Z,6.2
2018-05-11T10:07:13.616Z,3.9
2018-05-11T10:08:15.296Z,4.7
2018-05-11T10:09:17.249Z,5.0
2018-05-11T10:10:22.757Z,5.9
2018-05-11T10:11:24.447Z,5.3
2018-05-11T10:12:26.130Z,6.4
2018-05-11T10:13:27.810Z,5.6
2018-05-11T10:14:29.502Z,4.8
2018-05-11T10:15:31.180Z,5.6
2018-05-11T10:16:33.046Z,6.1
2018-05-11T10:17:34.656Z,4.4
2018-05-11T10:18:36.337Z,4.4
2018-05-11T10:19:38.032Z,4.0
2018-05-11T10:20:40.272Z,5.0
2018-05-11T10:21:42.004Z,5.2
2018-05-11T10:22:43.763Z,4.6
2018-05-11T10:23:46.034Z,5.2
2018-05-11T10:24:47.748Z,3.9
2018-05-11T10:25:49.427Z,5.1
2018-05-11T10:26:51.811Z,4.6
2018-05-11T10:27:53.486Z,6.6
2018-05-11T10:28:55.761Z,7.6
2018-05-11T10:29:57.390Z,4.9
2018-05-11T10:30:59.067Z,4.8
2018-05-11T10:32:00.951Z,4.4
2018-05-11T10:33:02.684Z,5.5
2018-05-11T10:34:05.999Z,5.2
2018-05-11T10:35:07.715Z,4.7
2018-05-11T10:36:09.481Z,6.1
2018-05-11T10:37:11.151Z,6.9
2018-05-11T10:38:14.004Z,4.5
2018-05-11T10:39:15.694Z,5.5
2018-05-11T10:40:19.278Z,4.6
2018-05-11T10:41:21.821Z,6.1
2018-05-11T10:42:23.734Z,8.3
2018-05-11T10:43:26.536Z,7.2
2018-05-11T10:44:28.265Z,5.4
2018-05-11T10:45:29.952Z,9.5
2018-05-11T10:46:32.287Z,7.0
2018-05-11T10:47:34.015Z,5.5
2018-05-11T10:48:35.742Z,5.6
2018-05-11T10:49:37.403Z,5.9
2018-05-11T10:50:39.086Z,4.8
2018-05-11T10:51:40.760Z,7.6
2018-05-11T10:52:43.245Z,5.7
2018-05-11T10:53:46.394Z,5.1
2018-05-11T10:54:48.149Z,4.7
2018-05-11T10:55:49.849Z,5.6
2018-05-11T10:56:51.581Z,4.7
2018-05-11T10:57:53.294Z,6.3
2018-05-11T10:58:54.986Z,5.9
2018-05-11T10:59:59.048Z,4.8
2018-05-11T11:01:00.689Z,5.9
2018-05-11T11:02:04.262Z,6.7
2018-05-11T11:03:05.970Z,6.0
2018-05-11T11:04:07.721Z,5.8
2018-05-11T11:05:09.423Z,4.9
2018-05-11T11:06:11.120Z,5.2
2018-05-11T11:07:12.823Z,6.8
2018-05-11T11:08:14.563Z,8.3
2018-05-11T11:09:16.237Z,7.4
2018-05-11T11:10:17.933Z,5.6
2018-05-11T11:11:19.608Z,6.9
2018-05-11T11:12:21.290Z,7.4
2018-05-11T11:13:22.973Z,6.5
2018-05-11T11:14:24.640Z,5.5
2018-05-11T11:15:26.322Z,5.4
2018-05-11T11:16:28.003Z,7.4
2018-05-11T11:17:29.679Z,4.6
2018-05-11T11:18:31.359Z,7.9
2018-05-11T11:19:33.046Z,4.8
2018-05-11T11:20:34.730Z,6.9
2018-05-11T11:21:36.400Z,5.9
2018-05-11T11:22:38.073Z,6.4
2018-05-11T11:23:39.748Z,7.0
2018-05-11T11:24:41.435Z,5.6
2018-05-11T11:25:43.111Z,8.6
2018-05-11T11:26:44.796Z,6.1
2018-05-11T11:27:46.464Z,7.8
2018-05-11T11:28:48.158Z,4.3
2018-05-11T11:29:49.831Z,6.7
2018-05-11T11:30:51.515Z,8.9
2018-05-11T11:31:53.202Z,6.3
2018-05-11T11:32:54.879Z,6.2
2018-05-11T11:33:56.558Z,8.6
2018-05-11T11:34:58.237Z,7.2
2018-05-11T11:35:59.910Z,7.0
2018-05-11T11:37:01.593Z,3.8
2018-05-11T11:38:03.274Z,5.9
2018-05-11T11:39:04.909Z,4.6
2018-05-11T11:40:06.625Z,5.0
2018-05-11T11:41:08.465Z,6.0
2018-05-11T11:42:10.074Z,6.6
2018-05-11T11:43:12.028Z,4.0
2018-05-11T11:44:13.697Z,5.9
2018-05-11T11:45:15.380Z,9.4
2018-05-11T11:46:17.064Z,4.0
2018-05-11T11:47:18.735Z,5.7
2018-05-11T11:48:20.423Z,5.9
2018-05-11T11:49:22.089Z,4.7
2018-05-11T11:50:23.778Z,5.3
2018-05-11T11:51:25.467Z,4.7
2018-05-11T11:52:27.152Z,4.0
2018-05-11T11:53:28.823Z,7.3
2018-05-11T11:54:30.532Z,5.4
2018-05-11T11:55:32.208Z,6.2
2018-05-11T11:56:33.872Z,5.0
2018-05-11T11:57:35.544Z,5.5
2018-05-11T11:58:37.263Z,4.7
2018-05-11T11:59:38.957Z,6.5
2018-05-11T12:00:40.643Z,6.7
2018-05-11T12:01:42.358Z,6.4
2018-05-11T12:02:44.043Z,4.4
2018-05-11T12:03:45.703Z,4.9
2018-05-11T12:04:47.408Z,4.2
2018-05-11T12:05:49.078Z,5.1
2018-05-11T12:06:50.756Z,6.1
2018-05-11T12:07:52.437Z,6.4
2018-05-11T12:08:54.173Z,6.3
2018-05-11T12:09:55.782Z,5.7
2018-05-11T12:10:57.457Z,5.7
2018-05-11T12:11:59.143Z,5.0
2018-05-11T12:13:00.906Z,6.3
2018-05-11T12:14:02.494Z,6.7
2018-05-11T12:15:04.170Z,4.7
2018-05-11T12:16:05.832Z,6.4
2018-05-11T12:17:07.517Z,5.6
2018-05-11T12:18:09.189Z,5.0
2018-05-11T12:19:10.876Z,7.4
2018-05-11T12:20:12.537Z,4.9
2018-05-11T12:21:14.223Z,4.5
2018-05-11T12:22:15.943Z,5.6
2018-05-11T12:23:17.561Z,5.9
2018-05-11T12:24:19.238Z,5.6
2018-05-11T12:25:20.922Z,9.4
2018-05-11T12:26:22.689Z,7.1
2018-05-11T12:27:24.252Z,5.3
2018-05-11T12:28:25.928Z,6.6
2018-05-11T12:29:27.556Z,6.3
2018-05-11T12:30:29.231Z,5.6
2018-05-11T12:31:30.942Z,6.3
2018-05-11T12:32:32.608Z,6.5
2018-05-11T12:33:34.275Z,7.7
2018-05-11T12:34:35.946Z,6.2
2018-05-11T12:35:37.626Z,6.3
2018-05-11T12:36:39.297Z,4.7
2018-05-11T12:37:40.974Z,5.5
2018-05-11T12:38:42.664Z,7.4
2018-05-11T12:39:44.388Z,6.0
2018-05-11T12:40:46.060Z,6.2
2018-05-11T12:41:47.759Z,6.0
2018-05-11T12:42:49.438Z,5.9
2018-05-11T12:43:51.156Z,6.3
2018-05-11T12:44:52.832Z,6.0
2018-05-11T12:45:54.504Z,6.7
2018-05-11T12:46:56.175Z,9.6
2018-05-11T12:47:57.845Z,7.6
2018-05-11T12:48:59.538Z,6.2
2018-05-11T12:50:01.211Z,6.9
2018-05-11T12:51:02.883Z,5.5
2018-05-11T12:52:04.551Z,4.5
2018-05-11T12:53:06.221Z,7.3
2018-05-11T12:54:07.908Z,5.5
2018-05-11T12:55:09.571Z,6.5
2018-05-11T12:56:11.309Z,7.0
2018-05-11T12:57:12.978Z,7.2
2018-05-11T12:58:14.669Z,6.5
2018-05-11T12:59:16.351Z,6.3
2018-05-11T13:00:18.023Z,5.3
2018-05-11T13:01:19.681Z,6.4
2018-05-11T13:02:21.355Z,4.8
2018-05-11T13:03:23.018Z,5.5
2018-05-11T13:04:24.697Z,4.4
2018-05-11T13:05:26.366Z,7.3
2018-05-11T13:06:28.061Z,7.5
2018-05-11T13:07:29.734Z,5.8
2018-05-11T13:08:31.408Z,6.4
2018-05-11T13:09:33.076Z,5.4
2018-05-11T13:10:34.819Z,5.6
2018-05-11T13:11:36.487Z,8.0
2018-05-11T13:12:38.185Z,6.8
2018-05-11T13:13:39.851Z,6.9
2018-05-11T13:14:41.520Z,5.3
2018-05-11T13:15:43.243Z,5.1
2018-05-11T13:16:44.919Z,5.5
2018-05-11T13:17:46.620Z,7.1
2018-05-11T13:18:48.286Z,7.4
2018-05-11T13:19:49.949Z,6.2
2018-05-11T13:20:51.664Z,5.9
2018-05-11T13:21:53.367Z,7.2
2018-05-11T13:22:55.050Z,4.9
2018-05-11T13:23:56.716Z,8.1
2018-05-11T13:24:58.439Z,7.7
2018-05-11T13:26:00.112Z,8.3
2018-05-11T13:27:01.772Z,10.2
2018-05-11T13:28:03.466Z,5.7
2018-05-11T13:29:05.131Z,4.9
2018-05-11T13:30:06.796Z,4.6
2018-05-11T13:31:08.463Z,6.8
2018-05-11T13:32:10.138Z,5.4
2018-05-11T13:33:11.810Z,8.9
2018-05-11T13:34:13.477Z,4.8
2018-05-11T13:35:15.143Z,8.4
2018-05-11T13:36:16.826Z,7.5
2018-05-11T13:37:18.459Z,8.8
2018-05-11T13:38:20.130Z,11.3
2018-05-11T13:39:21.804Z,5.4
2018-05-11T13:40:23.478Z,7.6
2018-05-11T13:41:25.153Z,5.5
2018-05-11T13:42:26.829Z,6.0
2018-05-11T13:43:28.501Z,6.1
2018-05-11T13:44:30.175Z,6.8
2018-05-11T13:45:31.855Z,7.0
2018-05-11T13:46:33.524Z,7.7
2018-05-11T13:47:35.291Z,6.7
2018-05-11T13:48:36.962Z,5.9
2018-05-11T13:49:38.634Z,8.1
2018-05-11T13:50:40.304Z,8.7
2018-05-11T13:51:41.974Z,9.5
2018-05-11T13:52:43.658Z,5.9
2018-05-11T13:53:45.321Z,6.3
2018-05-11T13:54:46.992Z,6.6
2018-05-11T13:55:48.681Z,7.8
2018-05-11T14:02:15.081Z,5.5
2018-05-11T14:03:16.757Z,5.8
2018-05-11T14:04:18.441Z,4.3
2018-05-11T14:05:20.094Z,7.5
2018-05-11T14:06:21.776Z,6.8
2018-05-11T14:07:23.442Z,6.9
2018-05-11T14:08:25.109Z,5.6
2018-05-11T14:09:26.776Z,6.9
2018-05-11T14:10:28.440Z,7.4
2018-05-11T14:11:30.113Z,7.1
2018-05-11T14:12:31.772Z,5.9
2018-05-11T14:13:33.442Z,6.7
2018-05-11T14:14:35.121Z,8.2
2018-05-11T14:15:36.791Z,5.5
2018-05-11T14:16:38.465Z,8.8
2018-05-11T14:17:40.125Z,8.4
2018-05-11T14:18:41.891Z,6.1
2018-05-11T14:19:43.558Z,8.1
2018-05-11T14:20:45.235Z,6.5
2018-05-11T14:21:46.914Z,5.3
2018-05-11T14:22:48.581Z,6.6
2018-05-11T14:23:50.468Z,9.3
2018-05-11T14:24:52.180Z,5.6
2018-05-11T14:25:53.815Z,5.4
2018-05-11T14:26:55.487Z,5.7
2018-05-11T14:27:57.215Z,5.6